sensor_id;sensor_type;location;lat;lon;timestamp;temperature;humidity
10400;DHT22;10031;51.180;17.168;2022-10-16T00:01:10;10.70;99.90
10400;DHT22;10031;51.180;17.168;2022-10-16T00:03:38;10.70;99.90
10400;DHT22;10031;51.180;17.168;2022-10-16T00:11:09;10.00;99.90
10400;DHT22;10031;51.180;17.168;2022-10-16T00:13:37;10.50;99.90
10400;DHT22;10031;51.180;17.168;2022-10-16T00:16:03;10.60;99.90
10400;DHT22;10031;51.180;17.168;2022-10-16T00:18:30;10.50;99.90
10400;DHT22;10031;51.180;17.168;2022-10-16T00:21:05;10.50;99.90
10400;DHT22;10031;51.180;17.168;2022-10-16T00:23:32;10.60;99.90
10400;DHT22;10031;51.180;17.168;2022-10-16T00:26:00;10.50;99.90
10400;DHT22;10031;51.180;17.168;2022-10-16T00:28:27;10.50;99.90
10400;DHT22;10031;51.180;17.168;2022-10-16T00:30:53;10.50;99.90
10400;DHT22;10031;51.180;17.168;2022-10-16T00:33:19;10.40;99.90
10400;DHT22;10031;51.180;17.168;2022-10-16T00:35:45;10.50;99.90
10400;DHT22;10031;51.180;17.168;2022-10-16T00:38:11;10.40;99.90
10400;DHT22;10031;51.180;17.168;2022-10-16T00:45:29;10.40;99.90
10400;DHT22;10031;51.180;17.168;2022-10-16T00:47:55;10.30;99.90
10400;DHT22;10031;51.180;17.168;2022-10-16T00:50:34;10.30;99.90
10400;DHT22;10031;51.180;17.168;2022-10-16T00:53:01;11.40;99.90
10400;DHT22;10031;51.180;17.168;2022-10-16T00:55:28;10.20;99.90
10400;DHT22;10031;51.180;17.168;2022-10-16T01:00:25;10.30;99.90
10400;DHT22;10031;51.180;17.168;2022-10-16T01:03:00;12.10;99.90
10400;DHT22;10031;51.180;17.168;2022-10-16T01:05:36;10.40;99.90
10400;DHT22;10031;51.180;17.168;2022-10-16T01:13:33;10.40;99.90
10400;DHT22;10031;51.180;17.168;2022-10-16T01:16:11;10.50;99.90
10400;DHT22;10031;51.180;17.168;2022-10-16T01:18:46;10.50;99.90
10400;DHT22;10031;51.180;17.168;2022-10-16T01:26:29;10.80;99.90
10400;DHT22;10031;51.180;17.168;2022-10-16T01:29:18;10.90;99.90
10400;DHT22;10031;51.180;17.168;2022-10-16T01:32:04;11.00;99.90
10400;DHT22;10031;51.180;17.168;2022-10-16T01:35:11;11.00;99.90
10400;DHT22;10031;51.180;17.168;2022-10-16T01:38:03;11.10;99.90
10400;DHT22;10031;51.180;17.168;2022-10-16T01:40:33;11.10;99.90
10400;DHT22;10031;51.180;17.168;2022-10-16T01:45:48;11.10;99.90
10400;DHT22;10031;51.180;17.168;2022-10-16T01:48:17;11.00;99.90
10400;DHT22;10031;51.180;17.168;2022-10-16T01:50:47;11.00;99.90
10400;DHT22;10031;51.180;17.168;2022-10-16T01:53:18;10.70;99.90
10400;DHT22;10031;51.180;17.168;2022-10-16T01:55:46;11.00;99.90
10400;DHT22;10031;51.180;17.168;2022-10-16T01:58:13;11.10;99.90
10400;DHT22;10031;51.180;17.168;2022-10-16T02:00:42;11.10;99.90
10400;DHT22;10031;51.180;17.168;2022-10-16T02:03:11;11.10;99.90
10400;DHT22;10031;51.180;17.168;2022-10-16T02:05:42;11.10;99.90
10400;DHT22;10031;51.180;17.168;2022-10-16T02:08:09;11.00;99.90
10400;DHT22;10031;51.180;17.168;2022-10-16T02:10:36;11.10;99.90
10400;DHT22;10031;51.180;17.168;2022-10-16T02:13:26;11.10;99.90
10400;DHT22;10031;51.180;17.168;2022-10-16T02:23:23;11.20;99.90
10400;DHT22;10031;51.180;17.168;2022-10-16T02:25:50;11.20;99.90
10400;DHT22;10031;51.180;17.168;2022-10-16T02:28:24;11.10;99.90
10400;DHT22;10031;51.180;17.168;2022-10-16T02:30:58;11.10;99.90
10400;DHT22;10031;51.180;17.168;2022-10-16T02:33:25;11.10;99.90
10400;DHT22;10031;51.180;17.168;2022-10-16T02:35:53;11.10;99.90
10400;DHT22;10031;51.180;17.168;2022-10-16T02:38:20;11.10;99.90
10400;DHT22;10031;51.180;17.168;2022-10-16T02:43:13;11.10;99.90
10400;DHT22;10031;51.180;17.168;2022-10-16T02:45:39;11.10;99.90
10400;DHT22;10031;51.180;17.168;2022-10-16T02:50:32;11.00;99.90
10400;DHT22;10031;51.180;17.168;2022-10-16T02:52:57;11.00;99.90
10400;DHT22;10031;51.180;17.168;2022-10-16T02:55:23;11.00;99.90
10400;DHT22;10031;51.180;17.168;2022-10-16T02:57:48;11.00;99.90
10400;DHT22;10031;51.180;17.168;2022-10-16T03:00:16;11.00;99.90
10400;DHT22;10031;51.180;17.168;2022-10-16T03:02:42;11.00;99.90
10400;DHT22;10031;51.180;17.168;2022-10-16T03:05:08;11.00;99.90
10400;DHT22;10031;51.180;17.168;2022-10-16T03:12:27;10.90;99.90
10400;DHT22;10031;51.180;17.168;2022-10-16T03:17:19;11.00;99.90
10400;DHT22;10031;51.180;17.168;2022-10-16T03:27:03;11.00;99.90
10400;DHT22;10031;51.180;17.168;2022-10-16T03:29:28;11.00;99.90
10400;DHT22;10031;51.180;17.168;2022-10-16T03:31:56;11.00;99.90
10400;DHT22;10031;51.180;17.168;2022-10-16T03:39:14;11.10;99.90
10400;DHT22;10031;51.180;17.168;2022-10-16T03:44:05;11.20;99.90
10400;DHT22;10031;51.180;17.168;2022-10-16T03:46:31;11.20;99.90
10400;DHT22;10031;51.180;17.168;2022-10-16T03:51:23;11.40;99.90
10400;DHT22;10031;51.180;17.168;2022-10-16T03:53:48;11.30;99.90
10400;DHT22;10031;51.180;17.168;2022-10-16T03:56:14;11.40;99.90
10400;DHT22;10031;51.180;17.168;2022-10-16T04:08:24;11.50;99.90
10400;DHT22;10031;51.180;17.168;2022-10-16T04:10:50;11.50;99.90
10400;DHT22;10031;51.180;17.168;2022-10-16T04:13:15;11.60;99.90
10400;DHT22;10031;51.180;17.168;2022-10-16T04:15:41;11.30;99.90
10400;DHT22;10031;51.180;17.168;2022-10-16T04:18:07;11.50;99.90
10400;DHT22;10031;51.180;17.168;2022-10-16T04:25:25;11.50;99.90
10400;DHT22;10031;51.180;17.168;2022-10-16T04:27:53;11.50;99.90
10400;DHT22;10031;51.180;17.168;2022-10-16T04:30:19;11.50;99.90
10400;DHT22;10031;51.180;17.168;2022-10-16T04:32:52;11.30;99.90
10400;DHT22;10031;51.180;17.168;2022-10-16T04:35:19;11.40;99.90
10400;DHT22;10031;51.180;17.168;2022-10-16T04:37:45;11.30;99.90
10400;DHT22;10031;51.180;17.168;2022-10-16T04:40:11;11.30;99.90
10400;DHT22;10031;51.180;17.168;2022-10-16T04:42:37;11.60;99.90
10400;DHT22;10031;51.180;17.168;2022-10-16T04:45:04;11.20;99.90
10400;DHT22;10031;51.180;17.168;2022-10-16T04:47:30;11.20;99.90
10400;DHT22;10031;51.180;17.168;2022-10-16T04:49:56;11.20;99.90
10400;DHT22;10031;51.180;17.168;2022-10-16T04:52:22;11.30;99.90
10400;DHT22;10031;51.180;17.168;2022-10-16T04:54:50;11.40;99.90
10400;DHT22;10031;51.180;17.168;2022-10-16T05:02:08;11.40;99.90
10400;DHT22;10031;51.180;17.168;2022-10-16T05:04:33;11.40;99.90
10400;DHT22;10031;51.180;17.168;2022-10-16T05:11:52;11.50;99.90
10400;DHT22;10031;51.180;17.168;2022-10-16T05:14:18;11.50;99.90
10400;DHT22;10031;51.180;17.168;2022-10-16T05:16:44;11.40;99.90
10400;DHT22;10031;51.180;17.168;2022-10-16T05:19:16;11.40;99.90
10400;DHT22;10031;51.180;17.168;2022-10-16T05:21:42;11.40;99.90
10400;DHT22;10031;51.180;17.168;2022-10-16T05:26:43;11.50;99.90
10400;DHT22;10031;51.180;17.168;2022-10-16T05:29:09;11.50;99.90
10400;DHT22;10031;51.180;17.168;2022-10-16T05:34:02;11.50;99.90
10400;DHT22;10031;51.180;17.168;2022-10-16T05:41:33;11.40;99.90
10400;DHT22;10031;51.180;17.168;2022-10-16T05:46:25;11.40;99.90
10400;DHT22;10031;51.180;17.168;2022-10-16T05:48:54;11.40;99.90
10400;DHT22;10031;51.180;17.168;2022-10-16T05:51:23;11.40;99.90
10400;DHT22;10031;51.180;17.168;2022-10-16T05:56:15;11.50;99.90
10400;DHT22;10031;51.180;17.168;2022-10-16T05:58:41;11.60;99.90
10400;DHT22;10031;51.180;17.168;2022-10-16T06:01:15;11.50;99.90
10400;DHT22;10031;51.180;17.168;2022-10-16T06:03:42;11.60;99.90
10400;DHT22;10031;51.180;17.168;2022-10-16T06:08:41;11.60;99.90
10400;DHT22;10031;51.180;17.168;2022-10-16T06:11:09;11.70;99.90
10400;DHT22;10031;51.180;17.168;2022-10-16T06:16:02;11.80;99.90
10400;DHT22;10031;51.180;17.168;2022-10-16T06:18:32;11.80;99.90
10400;DHT22;10031;51.180;17.168;2022-10-16T06:25:50;11.90;99.90
10400;DHT22;10031;51.180;17.168;2022-10-16T06:28:16;11.90;99.90
10400;DHT22;10031;51.180;17.168;2022-10-16T06:33:10;12.10;99.90
10400;DHT22;10031;51.180;17.168;2022-10-16T06:35:36;12.10;99.90
10400;DHT22;10031;51.180;17.168;2022-10-16T06:38:01;12.20;99.90
10400;DHT22;10031;51.180;17.168;2022-10-16T06:42:55;12.40;99.90
10400;DHT22;10031;51.180;17.168;2022-10-16T06:47:47;12.40;99.90
10400;DHT22;10031;51.180;17.168;2022-10-16T06:50:13;12.50;99.90
10400;DHT22;10031;51.180;17.168;2022-10-16T06:55:12;12.70;99.90
10400;DHT22;10031;51.180;17.168;2022-10-16T06:57:38;12.70;99.90
10400;DHT22;10031;51.180;17.168;2022-10-16T07:00:05;12.80;99.90
10400;DHT22;10031;51.180;17.168;2022-10-16T07:02:31;12.90;99.90
10400;DHT22;10031;51.180;17.168;2022-10-16T07:07:22;13.00;99.90
10400;DHT22;10031;51.180;17.168;2022-10-16T07:09:53;13.00;99.90
10400;DHT22;10031;51.180;17.168;2022-10-16T07:12:19;13.10;99.90
10400;DHT22;10031;51.180;17.168;2022-10-16T07:14:45;13.20;99.90
10400;DHT22;10031;51.180;17.168;2022-10-16T07:17:11;13.30;99.90
10400;DHT22;10031;51.180;17.168;2022-10-16T07:19:36;13.50;99.90
10400;DHT22;10031;51.180;17.168;2022-10-16T07:24:28;13.50;99.90
10400;DHT22;10031;51.180;17.168;2022-10-16T07:26:54;13.60;99.90
10400;DHT22;10031;51.180;17.168;2022-10-16T07:29:24;13.20;99.90
10400;DHT22;10031;51.180;17.168;2022-10-16T07:34:17;14.00;99.90
10400;DHT22;10031;51.180;17.168;2022-10-16T07:36:43;13.90;99.90
10400;DHT22;10031;51.180;17.168;2022-10-16T07:39:09;14.10;99.90
10400;DHT22;10031;51.180;17.168;2022-10-16T07:41:35;14.20;99.90
10400;DHT22;10031;51.180;17.168;2022-10-16T07:44:02;14.30;99.90
10400;DHT22;10031;51.180;17.168;2022-10-16T07:46:28;14.40;99.90
10400;DHT22;10031;51.180;17.168;2022-10-16T07:48:54;14.50;99.90
10400;DHT22;10031;51.180;17.168;2022-10-16T07:51:22;14.60;99.90
10400;DHT22;10031;51.180;17.168;2022-10-16T07:53:49;14.70;99.90
10400;DHT22;10031;51.180;17.168;2022-10-16T07:56:20;14.80;99.90
10400;DHT22;10031;51.180;17.168;2022-10-16T07:58:47;15.10;99.90
10400;DHT22;10031;51.180;17.168;2022-10-16T08:01:15;14.90;99.90
10400;DHT22;10031;51.180;17.168;2022-10-16T08:03:46;14.90;99.90
10400;DHT22;10031;51.180;17.168;2022-10-16T08:06:12;15.00;99.90
10400;DHT22;10031;51.180;17.168;2022-10-16T08:08:38;15.00;99.90
10400;DHT22;10031;51.180;17.168;2022-10-16T08:11:05;15.10;99.90
10400;DHT22;10031;51.180;17.168;2022-10-16T08:13:31;15.20;99.90
10400;DHT22;10031;51.180;17.168;2022-10-16T08:15:57;15.30;99.90
10400;DHT22;10031;51.180;17.168;2022-10-16T08:18:23;15.40;99.90
10400;DHT22;10031;51.180;17.168;2022-10-16T08:20:55;15.40;99.90
10400;DHT22;10031;51.180;17.168;2022-10-16T08:23:22;15.50;99.90
10400;DHT22;10031;51.180;17.168;2022-10-16T08:25:48;15.60;99.90
10400;DHT22;10031;51.180;17.168;2022-10-16T08:30:39;15.70;99.90
10400;DHT22;10031;51.180;17.168;2022-10-16T08:33:05;15.70;99.90
10400;DHT22;10031;51.180;17.168;2022-10-16T08:35:31;15.80;99.90
10400;DHT22;10031;51.180;17.168;2022-10-16T08:37:57;16.00;99.90
10400;DHT22;10031;51.180;17.168;2022-10-16T08:40:31;15.80;99.90
10400;DHT22;10031;51.180;17.168;2022-10-16T08:48:47;16.10;99.90
10400;DHT22;10031;51.180;17.168;2022-10-16T08:51:31;16.10;99.90
10400;DHT22;10031;51.180;17.168;2022-10-16T08:54:01;16.30;99.90
10400;DHT22;10031;51.180;17.168;2022-10-16T08:56:29;16.40;99.90
10400;DHT22;10031;51.180;17.168;2022-10-16T08:59:00;16.50;99.90
10400;DHT22;10031;51.180;17.168;2022-10-16T09:01:40;16.70;99.90
10400;DHT22;10031;51.180;17.168;2022-10-16T09:07:30;17.00;99.90
10400;DHT22;10031;51.180;17.168;2022-10-16T09:13:29;17.20;99.90
10400;DHT22;10031;51.180;17.168;2022-10-16T09:21:36;17.30;99.90
10400;DHT22;10031;51.180;17.168;2022-10-16T09:24:33;17.30;99.90
10400;DHT22;10031;51.180;17.168;2022-10-16T09:27:01;17.20;99.90
10400;DHT22;10031;51.180;17.168;2022-10-16T09:29:28;17.20;99.90
10400;DHT22;10031;51.180;17.168;2022-10-16T09:32:17;17.20;99.90
10400;DHT22;10031;51.180;17.168;2022-10-16T09:34:55;17.30;99.90
10400;DHT22;10031;51.180;17.168;2022-10-16T09:37:24;17.30;99.90
10400;DHT22;10031;51.180;17.168;2022-10-16T09:39:58;17.30;99.90
10400;DHT22;10031;51.180;17.168;2022-10-16T09:42:35;17.30;99.90
10400;DHT22;10031;51.180;17.168;2022-10-16T09:45:03;17.30;99.90
10400;DHT22;10031;51.180;17.168;2022-10-16T09:47:40;17.30;99.90
10400;DHT22;10031;51.180;17.168;2022-10-16T09:50:29;17.40;99.90
10400;DHT22;10031;51.180;17.168;2022-10-16T09:53:07;17.30;99.90
10400;DHT22;10031;51.180;17.168;2022-10-16T09:55:35;17.40;99.90
10400;DHT22;10031;51.180;17.168;2022-10-16T09:58:01;17.40;99.90
10400;DHT22;10031;51.180;17.168;2022-10-16T10:00:30;17.60;99.90
10400;DHT22;10031;51.180;17.168;2022-10-16T10:02:57;17.80;99.90
10400;DHT22;10031;51.180;17.168;2022-10-16T10:05:28;17.90;99.90
10400;DHT22;10031;51.180;17.168;2022-10-16T10:07:57;18.10;99.90
10400;DHT22;10031;51.180;17.168;2022-10-16T10:10:34;18.50;99.90
10400;DHT22;10031;51.180;17.168;2022-10-16T10:13:18;18.40;99.90
10400;DHT22;10031;51.180;17.168;2022-10-16T10:15:44;18.50;99.90
10400;DHT22;10031;51.180;17.168;2022-10-16T10:18:21;18.70;99.90
10400;DHT22;10031;51.180;17.168;2022-10-16T10:21:02;18.70;99.90
10400;DHT22;10031;51.180;17.168;2022-10-16T10:23:31;18.80;99.90
10400;DHT22;10031;51.180;17.168;2022-10-16T10:26:18;18.90;99.90
10400;DHT22;10031;51.180;17.168;2022-10-16T10:29:13;18.90;99.90
10400;DHT22;10031;51.180;17.168;2022-10-16T10:42:54;19.70;99.90
10400;DHT22;10031;51.180;17.168;2022-10-16T10:45:26;19.80;99.90
10400;DHT22;10031;51.180;17.168;2022-10-16T10:51:14;19.40;99.90
10400;DHT22;10031;51.180;17.168;2022-10-16T10:54:32;19.30;99.90
10400;DHT22;10031;51.180;17.168;2022-10-16T10:57:21;19.20;99.90
10400;DHT22;10031;51.180;17.168;2022-10-16T11:05:26;19.80;99.90
10400;DHT22;10031;51.180;17.168;2022-10-16T11:08:09;19.90;99.90
10400;DHT22;10031;51.180;17.168;2022-10-16T11:10:57;20.10;99.90
10400;DHT22;10031;51.180;17.168;2022-10-16T11:13:32;20.10;99.90
10400;DHT22;10031;51.180;17.168;2022-10-16T11:16:10;20.30;99.90
10400;DHT22;10031;51.180;17.168;2022-10-16T11:21:43;20.50;99.90
10400;DHT22;10031;51.180;17.168;2022-10-16T11:25:11;20.80;99.90
10400;DHT22;10031;51.180;17.168;2022-10-16T11:30:05;21.00;99.90
10400;DHT22;10031;51.180;17.168;2022-10-16T11:32:35;20.80;99.90
10400;DHT22;10031;51.180;17.168;2022-10-16T11:35:18;21.00;99.90
10400;DHT22;10031;51.180;17.168;2022-10-16T11:37:46;21.20;99.90
10400;DHT22;10031;51.180;17.168;2022-10-16T11:40:31;21.40;99.90
10400;DHT22;10031;51.180;17.168;2022-10-16T11:43:15;21.70;99.90
10400;DHT22;10031;51.180;17.168;2022-10-16T11:45:50;21.80;99.90
10400;DHT22;10031;51.180;17.168;2022-10-16T11:48:40;22.10;99.90
10400;DHT22;10031;51.180;17.168;2022-10-16T11:51:36;22.50;99.90
10400;DHT22;10031;51.180;17.168;2022-10-16T11:57:40;22.00;99.90
10400;DHT22;10031;51.180;17.168;2022-10-16T12:00:21;21.70;99.90
10400;DHT22;10031;51.180;17.168;2022-10-16T12:08:11;20.90;99.90
10400;DHT22;10031;51.180;17.168;2022-10-16T12:10:39;20.90;99.90
10400;DHT22;10031;51.180;17.168;2022-10-16T12:13:30;20.90;99.90
10400;DHT22;10031;51.180;17.168;2022-10-16T12:16:06;20.90;99.90
10400;DHT22;10031;51.180;17.168;2022-10-16T12:18:32;20.90;99.90
10400;DHT22;10031;51.180;17.168;2022-10-16T12:20:59;20.80;99.90
10400;DHT22;10031;51.180;17.168;2022-10-16T12:23:30;20.80;99.90
10400;DHT22;10031;51.180;17.168;2022-10-16T12:25:58;20.80;99.90
10400;DHT22;10031;51.180;17.168;2022-10-16T12:28:31;20.70;99.90
10400;DHT22;10031;51.180;17.168;2022-10-16T12:31:03;20.60;99.90
10400;DHT22;10031;51.180;17.168;2022-10-16T12:33:40;20.50;99.90
10400;DHT22;10031;51.180;17.168;2022-10-16T12:36:16;20.50;99.90
10400;DHT22;10031;51.180;17.168;2022-10-16T12:38:52;20.50;99.90
10400;DHT22;10031;51.180;17.168;2022-10-16T12:41:29;20.50;99.90
10400;DHT22;10031;51.180;17.168;2022-10-16T12:43:55;20.30;99.90
10400;DHT22;10031;51.180;17.168;2022-10-16T12:51:40;20.20;99.90
10400;DHT22;10031;51.180;17.168;2022-10-16T12:54:31;20.20;99.90
10400;DHT22;10031;51.180;17.168;2022-10-16T12:59:42;20.50;99.90
10400;DHT22;10031;51.180;17.168;2022-10-16T13:05:02;20.60;99.90
10400;DHT22;10031;51.180;17.168;2022-10-16T13:07:41;20.60;99.90
10400;DHT22;10031;51.180;17.168;2022-10-16T13:10:27;20.50;99.90
10400;DHT22;10031;51.180;17.168;2022-10-16T13:18:39;20.40;99.90
10400;DHT22;10031;51.180;17.168;2022-10-16T13:24:20;20.20;99.90
10400;DHT22;10031;51.180;17.168;2022-10-16T13:29:42;20.20;99.90
10400;DHT22;10031;51.180;17.168;2022-10-16T13:32:11;20.40;99.90
10400;DHT22;10031;51.180;17.168;2022-10-16T13:34:45;20.90;99.90
10400;DHT22;10031;51.180;17.168;2022-10-16T13:37:23;20.60;99.90
10400;DHT22;10031;51.180;17.168;2022-10-16T13:39:49;20.50;99.90
10400;DHT22;10031;51.180;17.168;2022-10-16T13:42:27;20.60;99.90
10400;DHT22;10031;51.180;17.168;2022-10-16T13:44:55;20.50;99.90
10400;DHT22;10031;51.180;17.168;2022-10-16T13:47:23;20.50;99.90
10400;DHT22;10031;51.180;17.168;2022-10-16T13:50:06;20.30;99.90
10400;DHT22;10031;51.180;17.168;2022-10-16T13:52:32;20.30;99.90
10400;DHT22;10031;51.180;17.168;2022-10-16T13:54:58;20.70;99.90
10400;DHT22;10031;51.180;17.168;2022-10-16T13:57:24;21.20;99.90
10400;DHT22;10031;51.180;17.168;2022-10-16T13:59:53;21.50;99.90
10400;DHT22;10031;51.180;17.168;2022-10-16T14:05:09;22.10;99.90
10400;DHT22;10031;51.180;17.168;2022-10-16T14:07:43;21.90;99.90
10400;DHT22;10031;51.180;17.168;2022-10-16T14:10:29;21.60;99.90
10400;DHT22;10031;51.180;17.168;2022-10-16T14:13:06;21.70;99.90
10400;DHT22;10031;51.180;17.168;2022-10-16T14:15:34;21.80;99.90
10400;DHT22;10031;51.180;17.168;2022-10-16T14:18:01;22.10;99.90
10400;DHT22;10031;51.180;17.168;2022-10-16T14:20:29;22.20;99.90
10400;DHT22;10031;51.180;17.168;2022-10-16T14:23:23;21.50;99.90
10400;DHT22;10031;51.180;17.168;2022-10-16T14:25:49;21.20;99.90
10400;DHT22;10031;51.180;17.168;2022-10-16T14:28:16;21.30;99.90
10400;DHT22;10031;51.180;17.168;2022-10-16T14:31:00;21.10;99.90
10400;DHT22;10031;51.180;17.168;2022-10-16T14:38:38;20.70;99.90
10400;DHT22;10031;51.180;17.168;2022-10-16T14:41:07;20.60;99.90
10400;DHT22;10031;51.180;17.168;2022-10-16T14:46:02;20.80;99.90
10400;DHT22;10031;51.180;17.168;2022-10-16T14:48:28;20.70;99.90
10400;DHT22;10031;51.180;17.168;2022-10-16T14:50:55;20.70;99.90
10400;DHT22;10031;51.180;17.168;2022-10-16T14:53:20;20.60;99.90
10400;DHT22;10031;51.180;17.168;2022-10-16T14:55:46;20.40;99.90
10400;DHT22;10031;51.180;17.168;2022-10-16T14:58:19;20.50;99.90
10400;DHT22;10031;51.180;17.168;2022-10-16T15:00:45;20.50;99.90
10400;DHT22;10031;51.180;17.168;2022-10-16T15:03:11;20.30;99.90
10400;DHT22;10031;51.180;17.168;2022-10-16T15:08:03;20.00;99.90
10400;DHT22;10031;51.180;17.168;2022-10-16T15:10:31;20.00;99.90
10400;DHT22;10031;51.180;17.168;2022-10-16T15:12:58;20.00;99.90
10400;DHT22;10031;51.180;17.168;2022-10-16T15:15:33;19.90;99.90
10400;DHT22;10031;51.180;17.168;2022-10-16T15:18:07;19.90;99.90
10400;DHT22;10031;51.180;17.168;2022-10-16T15:20:34;19.70;99.90
10400;DHT22;10031;51.180;17.168;2022-10-16T15:23:14;19.60;99.90
10400;DHT22;10031;51.180;17.168;2022-10-16T15:25:47;19.60;99.90
10400;DHT22;10031;51.180;17.168;2022-10-16T15:28:14;19.50;99.90
10400;DHT22;10031;51.180;17.168;2022-10-16T15:30:40;19.30;99.90
10400;DHT22;10031;51.180;17.168;2022-10-16T15:33:13;19.40;99.90
10400;DHT22;10031;51.180;17.168;2022-10-16T15:35:39;19.30;99.90
10400;DHT22;10031;51.180;17.168;2022-10-16T15:38:05;19.00;99.90
10400;DHT22;10031;51.180;17.168;2022-10-16T15:40:33;18.90;99.90
10400;DHT22;10031;51.180;17.168;2022-10-16T15:45:26;18.80;99.90
10400;DHT22;10031;51.180;17.168;2022-10-16T15:47:55;18.80;99.90
10400;DHT22;10031;51.180;17.168;2022-10-16T15:50:21;18.60;99.90
10400;DHT22;10031;51.180;17.168;2022-10-16T15:52:47;18.50;99.90
10400;DHT22;10031;51.180;17.168;2022-10-16T15:55:13;18.30;99.90
10400;DHT22;10031;51.180;17.168;2022-10-16T15:57:40;18.20;99.90
10400;DHT22;10031;51.180;17.168;2022-10-16T16:00:11;18.10;99.90
10400;DHT22;10031;51.180;17.168;2022-10-16T16:02:38;18.10;99.90
10400;DHT22;10031;51.180;17.168;2022-10-16T16:05:04;17.90;99.90
10400;DHT22;10031;51.180;17.168;2022-10-16T16:07:33;17.90;99.90
10400;DHT22;10031;51.180;17.168;2022-10-16T16:09:59;17.70;99.90
10400;DHT22;10031;51.180;17.168;2022-10-16T16:12:25;17.60;99.90
10400;DHT22;10031;51.180;17.168;2022-10-16T16:17:18;17.50;99.90
10400;DHT22;10031;51.180;17.168;2022-10-16T16:19:45;17.40;99.90
10400;DHT22;10031;51.180;17.168;2022-10-16T16:22:11;17.30;99.90
10400;DHT22;10031;51.180;17.168;2022-10-16T16:24:37;17.20;99.90
10400;DHT22;10031;51.180;17.168;2022-10-16T16:27:03;17.10;99.90
10400;DHT22;10031;51.180;17.168;2022-10-16T16:29:28;17.00;99.90
10400;DHT22;10031;51.180;17.168;2022-10-16T16:34:28;16.90;99.90
10400;DHT22;10031;51.180;17.168;2022-10-16T16:36:55;16.90;99.90
10400;DHT22;10031;51.180;17.168;2022-10-16T16:39:21;16.80;99.90
10400;DHT22;10031;51.180;17.168;2022-10-16T16:41:47;18.20;99.90
10400;DHT22;10031;51.180;17.168;2022-10-16T16:44:15;16.60;99.90
10400;DHT22;10031;51.180;17.168;2022-10-16T16:46:45;16.60;99.90
10400;DHT22;10031;51.180;17.168;2022-10-16T16:49:12;16.60;99.90
10400;DHT22;10031;51.180;17.168;2022-10-16T16:54:09;16.40;99.90
10400;DHT22;10031;51.180;17.168;2022-10-16T16:59:35;16.30;99.90
10400;DHT22;10031;51.180;17.168;2022-10-16T17:02:02;16.20;99.90
10400;DHT22;10031;51.180;17.168;2022-10-16T17:06:55;15.90;99.90
10400;DHT22;10031;51.180;17.168;2022-10-16T17:09:21;15.90;99.90
10400;DHT22;10031;51.180;17.168;2022-10-16T17:11:51;15.80;99.90
10400;DHT22;10031;51.180;17.168;2022-10-16T17:14:17;15.80;99.90
10400;DHT22;10031;51.180;17.168;2022-10-16T17:19:15;15.70;99.90
10400;DHT22;10031;51.180;17.168;2022-10-16T17:21:42;15.40;99.90
10400;DHT22;10031;51.180;17.168;2022-10-16T17:24:08;15.40;99.90
10400;DHT22;10031;51.180;17.168;2022-10-16T17:26:34;15.30;99.90
10400;DHT22;10031;51.180;17.168;2022-10-16T17:29:04;15.20;99.90
10400;DHT22;10031;51.180;17.168;2022-10-16T17:31:35;15.10;99.90
10400;DHT22;10031;51.180;17.168;2022-10-16T17:34:03;15.00;99.90
10400;DHT22;10031;51.180;17.168;2022-10-16T17:36:30;15.00;99.90
10400;DHT22;10031;51.180;17.168;2022-10-16T17:39:09;15.00;99.90
10400;DHT22;10031;51.180;17.168;2022-10-16T17:44:03;15.00;99.90
10400;DHT22;10031;51.180;17.168;2022-10-16T17:46:30;14.90;99.90
10400;DHT22;10031;51.180;17.168;2022-10-16T17:51:25;14.80;99.90
10400;DHT22;10031;51.180;17.168;2022-10-16T17:53:56;14.80;99.90
10400;DHT22;10031;51.180;17.168;2022-10-16T17:56:23;14.70;99.90
10400;DHT22;10031;51.180;17.168;2022-10-16T17:58:51;14.70;99.90
10400;DHT22;10031;51.180;17.168;2022-10-16T18:03:55;14.70;99.90
10400;DHT22;10031;51.180;17.168;2022-10-16T18:08:48;14.50;99.90
10400;DHT22;10031;51.180;17.168;2022-10-16T18:11:14;14.50;99.90
10400;DHT22;10031;51.180;17.168;2022-10-16T18:13:40;14.40;99.90
10400;DHT22;10031;51.180;17.168;2022-10-16T18:16:10;14.40;99.90
10400;DHT22;10031;51.180;17.168;2022-10-16T18:18:41;14.20;99.90
10400;DHT22;10031;51.180;17.168;2022-10-16T18:21:11;14.40;99.90
10400;DHT22;10031;51.180;17.168;2022-10-16T18:23:38;14.20;99.90
10400;DHT22;10031;51.180;17.168;2022-10-16T18:26:05;14.20;99.90
10400;DHT22;10031;51.180;17.168;2022-10-16T18:28:32;14.10;99.90
10400;DHT22;10031;51.180;17.168;2022-10-16T18:31:07;14.00;99.90
10400;DHT22;10031;51.180;17.168;2022-10-16T18:33:34;14.10;99.90
10400;DHT22;10031;51.180;17.168;2022-10-16T18:36:03;14.20;99.90
10400;DHT22;10031;51.180;17.168;2022-10-16T18:38:29;14.10;99.90
10400;DHT22;10031;51.180;17.168;2022-10-16T18:43:26;14.10;99.90
10400;DHT22;10031;51.180;17.168;2022-10-16T18:45:57;14.10;99.90
10400;DHT22;10031;51.180;17.168;2022-10-16T18:48:24;14.00;99.90
10400;DHT22;10031;51.180;17.168;2022-10-16T18:50:51;14.10;99.90
10400;DHT22;10031;51.180;17.168;2022-10-16T18:53:19;13.90;99.90
10400;DHT22;10031;51.180;17.168;2022-10-16T18:55:52;13.60;99.90
10400;DHT22;10031;51.180;17.168;2022-10-16T18:58:18;13.50;99.90
10400;DHT22;10031;51.180;17.168;2022-10-16T19:00:45;13.60;99.90
10400;DHT22;10031;51.180;17.168;2022-10-16T19:03:11;13.60;99.90
10400;DHT22;10031;51.180;17.168;2022-10-16T19:08:04;13.40;99.90
10400;DHT22;10031;51.180;17.168;2022-10-16T19:10:30;13.30;99.90
10400;DHT22;10031;51.180;17.168;2022-10-16T19:12:56;13.20;99.90
10400;DHT22;10031;51.180;17.168;2022-10-16T19:15:22;13.20;99.90
10400;DHT22;10031;51.180;17.168;2022-10-16T19:17:48;13.20;99.90
10400;DHT22;10031;51.180;17.168;2022-10-16T19:22:40;13.30;99.90
10400;DHT22;10031;51.180;17.168;2022-10-16T19:25:29;13.20;99.90
10400;DHT22;10031;51.180;17.168;2022-10-16T19:30:21;13.00;99.90
10400;DHT22;10031;51.180;17.168;2022-10-16T19:35:17;12.50;99.90
10400;DHT22;10031;51.180;17.168;2022-10-16T19:37:49;12.50;99.90
10400;DHT22;10031;51.180;17.168;2022-10-16T19:45:10;12.80;99.90
10400;DHT22;10031;51.180;17.168;2022-10-16T19:47:36;12.60;99.90
10400;DHT22;10031;51.180;17.168;2022-10-16T19:50:04;12.50;99.90
10400;DHT22;10031;51.180;17.168;2022-10-16T19:59:53;12.10;99.90
10400;DHT22;10031;51.180;17.168;2022-10-16T20:04:45;12.00;99.90
10400;DHT22;10031;51.180;17.168;2022-10-16T20:07:11;11.80;99.90